Absarokee, Montana
Current Conditions -  °F | °C
As of 8:53 PM on Friday 19 Dec 2014 (Local Time) from KBIL Reporting Station
Light Snow Light Snow  
Wind Chill: 27°   Ceiling: 7500
Heat Index: 35°   Visibility: 10mi
Dew Point: 21°   Wind: 10mph
Humidity: 57%   Direction: 230°SW
Pressure: 29.89"   Gusts: NA
Location:  45.53°N, 109.43°W
Report Text: KBIL 200353Z 23009KT 10SM -SN BKN075 OVC085 02/M06 A2989 RMK AO2 SNB50 SLP147 P0000 T00171061
Loading
Personal Weather Stations






























Interactive Weather Map New forecast layout! Learn more

10-Day Weather Forecast

Advertisements
Track Severe Weather on mobile